sensor_id;sensor_type;location;lat;lon;timestamp;P1;durP1;ratioP1;P2;durP2;ratioP2
76675;SDS011;69204;55.350;36.906;2024-03-23T00:57:54;37.38;;;15.20;;
76675;SDS011;69204;55.350;36.906;2024-03-23T01:02:55;35.33;;;16.07;;
76675;SDS011;69204;55.350;36.906;2024-03-23T01:07:56;37.55;;;15.55;;
76675;SDS011;69204;55.350;36.906;2024-03-23T01:12:57;37.47;;;15.93;;
76675;SDS011;69204;55.350;36.906;2024-03-23T01:17:58;40.25;;;15.95;;
76675;SDS011;69204;55.350;36.906;2024-03-23T01:22:59;36.22;;;14.60;;
76675;SDS011;69204;55.350;36.906;2024-03-23T01:28:00;42.88;;;15.93;;
76675;SDS011;69204;55.350;36.906;2024-03-23T01:33:02;37.97;;;16.92;;
76675;SDS011;69204;55.350;36.906;2024-03-23T01:38:06;33.63;;;14.93;;
76675;SDS011;69204;55.350;36.906;2024-03-23T01:43:07;41.42;;;15.93;;
76675;SDS011;69204;55.350;36.906;2024-03-23T01:48:08;42.37;;;17.00;;
76675;SDS011;69204;55.350;36.906;2024-03-23T01:53:11;37.38;;;15.73;;
76675;SDS011;69204;55.350;36.906;2024-03-23T01:58:12;39.38;;;16.77;;
76675;SDS011;69204;55.350;36.906;2024-03-23T02:03:25;42.73;;;17.53;;
76675;SDS011;69204;55.350;36.906;2024-03-23T02:08:26;35.50;;;16.20;;
76675;SDS011;69204;55.350;36.906;2024-03-23T02:13:27;35.67;;;14.97;;
76675;SDS011;69204;55.350;36.906;2024-03-23T02:18:29;37.08;;;16.20;;
76675;SDS011;69204;55.350;36.906;2024-03-23T02:23:30;38.38;;;17.40;;
76675;SDS011;69204;55.350;36.906;2024-03-23T02:28:31;35.85;;;15.80;;
76675;SDS011;69204;55.350;36.906;2024-03-23T02:33:32;38.72;;;17.05;;
76675;SDS011;69204;55.350;36.906;2024-03-23T02:38:35;38.33;;;15.87;;
76675;SDS011;69204;55.350;36.906;2024-03-23T02:43:36;38.55;;;15.13;;
76675;SDS011;69204;55.350;36.906;2024-03-23T02:48:37;37.80;;;16.42;;
76675;SDS011;69204;55.350;36.906;2024-03-23T02:53:38;42.67;;;15.45;;
76675;SDS011;69204;55.350;36.906;2024-03-23T02:58:39;31.90;;;15.15;;
76675;SDS011;69204;55.350;36.906;2024-03-23T03:03:40;40.13;;;17.30;;
76675;SDS011;69204;55.350;36.906;2024-03-23T03:08:41;36.22;;;16.42;;
76675;SDS011;69204;55.350;36.906;2024-03-23T03:13:42;31.20;;;15.68;;
76675;SDS011;69204;55.350;36.906;2024-03-23T03:18:43;31.98;;;15.20;;
76675;SDS011;69204;55.350;36.906;2024-03-23T03:23:47;41.03;;;14.57;;
76675;SDS011;69204;55.350;36.906;2024-03-23T03:28:50;35.37;;;13.90;;
76675;SDS011;69204;55.350;36.906;2024-03-23T03:33:52;34.90;;;14.65;;
76675;SDS011;69204;55.350;36.906;2024-03-23T03:38:52;37.10;;;15.17;;
76675;SDS011;69204;55.350;36.906;2024-03-23T03:43:54;28.45;;;13.75;;
76675;SDS011;69204;55.350;36.906;2024-03-23T03:48:55;38.85;;;15.55;;
76675;SDS011;69204;55.350;36.906;2024-03-23T03:53:59;35.78;;;15.30;;
76675;SDS011;69204;55.350;36.906;2024-03-23T03:59:05;36.63;;;15.35;;
76675;SDS011;69204;55.350;36.906;2024-03-23T04:04:06;34.03;;;15.43;;
76675;SDS011;69204;55.350;36.906;2024-03-23T04:09:07;32.83;;;13.98;;
76675;SDS011;69204;55.350;36.906;2024-03-23T04:14:08;29.10;;;13.60;;
76675;SDS011;69204;55.350;36.906;2024-03-23T04:19:09;30.13;;;11.65;;
76675;SDS011;69204;55.350;36.906;2024-03-23T04:24:10;33.53;;;14.93;;
76675;SDS011;69204;55.350;36.906;2024-03-23T04:29:12;32.10;;;14.93;;
76675;SDS011;69204;55.350;36.906;2024-03-23T04:34:13;34.85;;;14.15;;
76675;SDS011;69204;55.350;36.906;2024-03-23T04:39:15;29.97;;;14.80;;
76675;SDS011;69204;55.350;36.906;2024-03-23T04:44:16;30.95;;;13.38;;
76675;SDS011;69204;55.350;36.906;2024-03-23T04:49:17;31.90;;;12.95;;
76675;SDS011;69204;55.350;36.906;2024-03-23T04:54:18;33.35;;;13.40;;
76675;SDS011;69204;55.350;36.906;2024-03-23T04:59:19;36.45;;;16.70;;
76675;SDS011;69204;55.350;36.906;2024-03-23T05:04:20;32.40;;;12.50;;
76675;SDS011;69204;55.350;36.906;2024-03-23T05:09:21;30.85;;;13.85;;
76675;SDS011;69204;55.350;36.906;2024-03-23T05:14:22;33.47;;;13.27;;
76675;SDS011;69204;55.350;36.906;2024-03-23T05:19:23;34.45;;;13.98;;
76675;SDS011;69204;55.350;36.906;2024-03-23T05:24:25;31.93;;;14.03;;
76675;SDS011;69204;55.350;36.906;2024-03-23T05:29:26;33.97;;;16.00;;
76675;SDS011;69204;55.350;36.906;2024-03-23T05:34:27;26.03;;;12.87;;
76675;SDS011;69204;55.350;36.906;2024-03-23T05:39:29;32.05;;;15.15;;
76675;SDS011;69204;55.350;36.906;2024-03-23T05:44:30;36.00;;;15.73;;
76675;SDS011;69204;55.350;36.906;2024-03-23T05:49:32;32.10;;;14.30;;
76675;SDS011;69204;55.350;36.906;2024-03-23T05:54:33;30.50;;;13.73;;
76675;SDS011;69204;55.350;36.906;2024-03-23T05:59:34;25.67;;;13.00;;
76675;SDS011;69204;55.350;36.906;2024-03-23T06:04:36;30.90;;;14.02;;
76675;SDS011;69204;55.350;36.906;2024-03-23T06:09:37;28.25;;;14.05;;
76675;SDS011;69204;55.350;36.906;2024-03-23T06:14:39;27.73;;;13.60;;
76675;SDS011;69204;55.350;36.906;2024-03-23T06:19:40;32.42;;;13.80;;
76675;SDS011;69204;55.350;36.906;2024-03-23T06:24:42;25.77;;;12.47;;
76675;SDS011;69204;55.350;36.906;2024-03-23T06:29:43;27.17;;;13.50;;
76675;SDS011;69204;55.350;36.906;2024-03-23T06:34:44;24.73;;;12.10;;
76675;SDS011;69204;55.350;36.906;2024-03-23T06:39:45;28.95;;;13.20;;
76675;SDS011;69204;55.350;36.906;2024-03-23T06:44:47;23.92;;;12.57;;
76675;SDS011;69204;55.350;36.906;2024-03-23T06:49:49;28.50;;;13.47;;
76675;SDS011;69204;55.350;36.906;2024-03-23T06:54:50;24.55;;;12.23;;
76675;SDS011;69204;55.350;36.906;2024-03-23T06:59:51;27.02;;;13.60;;
76675;SDS011;69204;55.350;36.906;2024-03-23T07:04:52;24.13;;;10.48;;
76675;SDS011;69204;55.350;36.906;2024-03-23T07:09:53;28.33;;;13.43;;
76675;SDS011;69204;55.350;36.906;2024-03-23T07:14:54;21.77;;;11.40;;
76675;SDS011;69204;55.350;36.906;2024-03-23T07:19:55;29.15;;;12.82;;
76675;SDS011;69204;55.350;36.906;2024-03-23T07:24:56;25.50;;;13.00;;
76675;SDS011;69204;55.350;36.906;2024-03-23T07:29:57;22.73;;;11.95;;
76675;SDS011;69204;55.350;36.906;2024-03-23T07:34:59;26.60;;;12.23;;
76675;SDS011;69204;55.350;36.906;2024-03-23T07:40:00;25.73;;;12.25;;
76675;SDS011;69204;55.350;36.906;2024-03-23T07:45:01;24.83;;;12.80;;
76675;SDS011;69204;55.350;36.906;2024-03-23T07:50:04;24.33;;;11.80;;
76675;SDS011;69204;55.350;36.906;2024-03-23T07:55:05;27.13;;;12.45;;
76675;SDS011;69204;55.350;36.906;2024-03-23T08:00:06;25.30;;;13.10;;
76675;SDS011;69204;55.350;36.906;2024-03-23T08:05:08;24.42;;;11.82;;
76675;SDS011;69204;55.350;36.906;2024-03-23T08:10:09;24.58;;;13.65;;
76675;SDS011;69204;55.350;36.906;2024-03-23T08:15:13;21.40;;;10.77;;
76675;SDS011;69204;55.350;36.906;2024-03-23T08:20:14;25.65;;;11.63;;
76675;SDS011;69204;55.350;36.906;2024-03-23T08:25:15;21.63;;;11.83;;
76675;SDS011;69204;55.350;36.906;2024-03-23T08:30:17;22.20;;;10.82;;
76675;SDS011;69204;55.350;36.906;2024-03-23T08:35:18;17.13;;;9.53;;
76675;SDS011;69204;55.350;36.906;2024-03-23T08:40:18;18.52;;;9.38;;
76675;SDS011;69204;55.350;36.906;2024-03-23T08:45:19;19.60;;;10.27;;
76675;SDS011;69204;55.350;36.906;2024-03-23T08:50:20;17.15;;;9.70;;
76675;SDS011;69204;55.350;36.906;2024-03-23T08:55:22;20.25;;;10.52;;
76675;SDS011;69204;55.350;36.906;2024-03-23T09:00:23;21.48;;;11.13;;
76675;SDS011;69204;55.350;36.906;2024-03-23T09:05:24;19.60;;;10.73;;
76675;SDS011;69204;55.350;36.906;2024-03-23T09:10:25;17.38;;;9.82;;
76675;SDS011;69204;55.350;36.906;2024-03-23T09:15:26;19.75;;;10.73;;
76675;SDS011;69204;55.350;36.906;2024-03-23T09:20:27;27.90;;;10.17;;
76675;SDS011;69204;55.350;36.906;2024-03-23T09:25:28;18.85;;;10.82;;
76675;SDS011;69204;55.350;36.906;2024-03-23T09:30:29;17.43;;;9.90;;
76675;SDS011;69204;55.350;36.906;2024-03-23T09:35:30;20.40;;;9.88;;
76675;SDS011;69204;55.350;36.906;2024-03-23T09:40:31;17.50;;;9.63;;
76675;SDS011;69204;55.350;36.906;2024-03-23T09:45:32;16.70;;;9.03;;
76675;SDS011;69204;55.350;36.906;2024-03-23T09:50:35;18.38;;;9.70;;
76675;SDS011;69204;55.350;36.906;2024-03-23T09:55:37;18.17;;;9.60;;
76675;SDS011;69204;55.350;36.906;2024-03-23T10:00:38;20.50;;;9.70;;
76675;SDS011;69204;55.350;36.906;2024-03-23T10:05:39;19.30;;;10.27;;
76675;SDS011;69204;55.350;36.906;2024-03-23T10:10:40;19.83;;;9.83;;
76675;SDS011;69204;55.350;36.906;2024-03-23T10:15:43;19.65;;;9.45;;
76675;SDS011;69204;55.350;36.906;2024-03-23T10:20:51;19.10;;;10.40;;
76675;SDS011;69204;55.350;36.906;2024-03-23T10:25:53;21.38;;;10.95;;
76675;SDS011;69204;55.350;36.906;2024-03-23T10:30:54;17.85;;;9.60;;
76675;SDS011;69204;55.350;36.906;2024-03-23T10:35:55;19.88;;;10.68;;
76675;SDS011;69204;55.350;36.906;2024-03-23T10:40:59;19.73;;;10.65;;
76675;SDS011;69204;55.350;36.906;2024-03-23T10:46:00;19.77;;;11.37;;
76675;SDS011;69204;55.350;36.906;2024-03-23T10:51:02;20.13;;;11.70;;
76675;SDS011;69204;55.350;36.906;2024-03-23T10:56:03;26.48;;;12.13;;
76675;SDS011;69204;55.350;36.906;2024-03-23T11:01:05;25.63;;;13.20;;
76675;SDS011;69204;55.350;36.906;2024-03-23T11:06:06;25.77;;;12.20;;
76675;SDS011;69204;55.350;36.906;2024-03-23T11:11:12;22.60;;;11.93;;
76675;SDS011;69204;55.350;36.906;2024-03-23T11:16:24;24.67;;;12.80;;
76675;SDS011;69204;55.350;36.906;2024-03-23T11:21:58;23.10;;;11.40;;
76675;SDS011;69204;55.350;36.906;2024-03-23T11:26:53;28.33;;;13.57;;
76675;SDS011;69204;55.350;36.906;2024-03-23T11:31:54;26.05;;;13.43;;
76675;SDS011;69204;55.350;36.906;2024-03-23T11:37:03;25.70;;;12.53;;
76675;SDS011;69204;55.350;36.906;2024-03-23T11:42:05;26.42;;;12.25;;
76675;SDS011;69204;55.350;36.906;2024-03-23T11:47:08;25.43;;;12.40;;
76675;SDS011;69204;55.350;36.906;2024-03-23T11:52:11;24.38;;;11.57;;
76675;SDS011;69204;55.350;36.906;2024-03-23T11:57:12;26.67;;;12.40;;
76675;SDS011;69204;55.350;36.906;2024-03-23T12:02:13;26.13;;;12.75;;
76675;SDS011;69204;55.350;36.906;2024-03-23T12:07:17;22.13;;;11.50;;
76675;SDS011;69204;55.350;36.906;2024-03-23T12:12:22;24.02;;;12.25;;
76675;SDS011;69204;55.350;36.906;2024-03-23T12:17:22;24.40;;;12.63;;
76675;SDS011;69204;55.350;36.906;2024-03-23T12:22:24;25.20;;;12.97;;
76675;SDS011;69204;55.350;36.906;2024-03-23T12:27:25;26.85;;;12.43;;
76675;SDS011;69204;55.350;36.906;2024-03-23T12:32:26;26.17;;;12.53;;
76675;SDS011;69204;55.350;36.906;2024-03-23T12:37:27;22.85;;;11.25;;
76675;SDS011;69204;55.350;36.906;2024-03-23T12:42:28;24.73;;;12.90;;
76675;SDS011;69204;55.350;36.906;2024-03-23T12:47:30;21.27;;;10.73;;
76675;SDS011;69204;55.350;36.906;2024-03-23T12:52:31;24.05;;;11.18;;
76675;SDS011;69204;55.350;36.906;2024-03-23T12:57:33;25.17;;;10.63;;
76675;SDS011;69204;55.350;36.906;2024-03-23T13:02:34;20.92;;;11.07;;
76675;SDS011;69204;55.350;36.906;2024-03-23T13:07:35;19.53;;;9.87;;
76675;SDS011;69204;55.350;36.906;2024-03-23T13:12:38;20.95;;;10.18;;
76675;SDS011;69204;55.350;36.906;2024-03-23T13:17:39;20.25;;;10.18;;
76675;SDS011;69204;55.350;36.906;2024-03-23T13:22:40;17.83;;;9.05;;
76675;SDS011;69204;55.350;36.906;2024-03-23T13:27:41;20.85;;;9.35;;
76675;SDS011;69204;55.350;36.906;2024-03-23T13:32:42;21.03;;;10.00;;
76675;SDS011;69204;55.350;36.906;2024-03-23T13:37:43;22.90;;;10.30;;
76675;SDS011;69204;55.350;36.906;2024-03-23T13:42:44;17.88;;;8.57;;
76675;SDS011;69204;55.350;36.906;2024-03-23T13:47:45;17.20;;;8.52;;
76675;SDS011;69204;55.350;36.906;2024-03-23T13:52:46;18.23;;;9.38;;
76675;SDS011;69204;55.350;36.906;2024-03-23T13:57:50;18.93;;;8.83;;
76675;SDS011;69204;55.350;36.906;2024-03-23T14:02:51;16.60;;;8.73;;
76675;SDS011;69204;55.350;36.906;2024-03-23T14:07:52;17.37;;;9.07;;
76675;SDS011;69204;55.350;36.906;2024-03-23T14:12:53;16.77;;;9.02;;
76675;SDS011;69204;55.350;36.906;2024-03-23T14:17:54;20.55;;;9.13;;
76675;SDS011;69204;55.350;36.906;2024-03-23T14:22:55;17.53;;;9.33;;
76675;SDS011;69204;55.350;36.906;2024-03-23T14:27:56;21.83;;;9.77;;
76675;SDS011;69204;55.350;36.906;2024-03-23T14:33:00;17.37;;;9.00;;
76675;SDS011;69204;55.350;36.906;2024-03-23T14:38:02;22.95;;;10.30;;
76675;SDS011;69204;55.350;36.906;2024-03-23T14:43:07;19.02;;;9.75;;
76675;SDS011;69204;55.350;36.906;2024-03-23T14:48:08;19.45;;;8.68;;
76675;SDS011;69204;55.350;36.906;2024-03-23T14:53:11;15.43;;;8.00;;
76675;SDS011;69204;55.350;36.906;2024-03-23T14:58:15;15.07;;;7.77;;
76675;SDS011;69204;55.350;36.906;2024-03-23T15:03:19;19.85;;;8.90;;
76675;SDS011;69204;55.350;36.906;2024-03-23T15:08:20;18.88;;;8.95;;
76675;SDS011;69204;55.350;36.906;2024-03-23T15:13:21;15.00;;;7.70;;
76675;SDS011;69204;55.350;36.906;2024-03-23T15:18:23;12.70;;;6.93;;
76675;SDS011;69204;55.350;36.906;2024-03-23T15:23:29;20.57;;;8.53;;
76675;SDS011;69204;55.350;36.906;2024-03-23T15:28:30;14.35;;;7.60;;
76675;SDS011;69204;55.350;36.906;2024-03-23T15:33:50;14.60;;;7.82;;
76675;SDS011;69204;55.350;36.906;2024-03-23T15:38:51;16.23;;;6.97;;
76675;SDS011;69204;55.350;36.906;2024-03-23T15:43:52;17.70;;;8.45;;
76675;SDS011;69204;55.350;36.906;2024-03-23T15:48:54;17.47;;;7.93;;
76675;SDS011;69204;55.350;36.906;2024-03-23T15:53:56;19.20;;;8.18;;
76675;SDS011;69204;55.350;36.906;2024-03-23T15:58:58;14.70;;;8.00;;
76675;SDS011;69204;55.350;36.906;2024-03-23T16:04:06;17.58;;;7.93;;
76675;SDS011;69204;55.350;36.906;2024-03-23T16:09:07;17.65;;;7.28;;
76675;SDS011;69204;55.350;36.906;2024-03-23T16:14:09;14.43;;;7.43;;
76675;SDS011;69204;55.350;36.906;2024-03-23T16:19:11;14.82;;;7.05;;
76675;SDS011;69204;55.350;36.906;2024-03-23T16:24:14;14.20;;;7.30;;
76675;SDS011;69204;55.350;36.906;2024-03-23T16:29:15;16.20;;;8.20;;
76675;SDS011;69204;55.350;36.906;2024-03-23T16:34:16;14.60;;;6.95;;
76675;SDS011;69204;55.350;36.906;2024-03-23T16:39:16;15.63;;;9.37;;
76675;SDS011;69204;55.350;36.906;2024-03-23T16:44:20;24.10;;;13.00;;
76675;SDS011;69204;55.350;36.906;2024-03-23T16:49:22;13.13;;;7.43;;
76675;SDS011;69204;55.350;36.906;2024-03-23T16:54:22;13.10;;;6.75;;
76675;SDS011;69204;55.350;36.906;2024-03-23T16:59:23;11.80;;;6.40;;
76675;SDS011;69204;55.350;36.906;2024-03-23T17:04:25;16.17;;;6.72;;
76675;SDS011;69204;55.350;36.906;2024-03-23T17:09:26;13.40;;;6.32;;
76675;SDS011;69204;55.350;36.906;2024-03-23T17:14:28;10.43;;;6.00;;
76675;SDS011;69204;55.350;36.906;2024-03-23T17:19:29;12.27;;;6.88;;
76675;SDS011;69204;55.350;36.906;2024-03-23T17:24:30;12.10;;;6.93;;
76675;SDS011;69204;55.350;36.906;2024-03-23T17:29:32;12.32;;;5.85;;
76675;SDS011;69204;55.350;36.906;2024-03-23T17:34:33;11.13;;;5.23;;
76675;SDS011;69204;55.350;36.906;2024-03-23T17:39:34;10.95;;;5.85;;
76675;SDS011;69204;55.350;36.906;2024-03-23T17:44:35;10.48;;;5.55;;
76675;SDS011;69204;55.350;36.906;2024-03-23T17:49:36;10.57;;;5.10;;
76675;SDS011;69204;55.350;36.906;2024-03-23T17:54:38;11.50;;;5.90;;
76675;SDS011;69204;55.350;36.906;2024-03-23T17:59:39;10.63;;;5.10;;
76675;SDS011;69204;55.350;36.906;2024-03-23T18:04:41;11.05;;;5.32;;
76675;SDS011;69204;55.350;36.906;2024-03-23T18:09:43;9.32;;;4.88;;
76675;SDS011;69204;55.350;36.906;2024-03-23T18:14:44;13.90;;;6.32;;
76675;SDS011;69204;55.350;36.906;2024-03-23T18:19:45;9.52;;;5.07;;
76675;SDS011;69204;55.350;36.906;2024-03-23T18:24:46;11.17;;;5.30;;
76675;SDS011;69204;55.350;36.906;2024-03-23T18:29:48;13.35;;;6.55;;
76675;SDS011;69204;55.350;36.906;2024-03-23T18:34:48;10.97;;;5.53;;
76675;SDS011;69204;55.350;36.906;2024-03-23T18:39:50;13.32;;;6.13;;
76675;SDS011;69204;55.350;36.906;2024-03-23T18:44:51;14.40;;;6.15;;
76675;SDS011;69204;55.350;36.906;2024-03-23T18:49:51;15.65;;;5.80;;
76675;SDS011;69204;55.350;36.906;2024-03-23T18:54:53;12.60;;;5.78;;
76675;SDS011;69204;55.350;36.906;2024-03-23T18:59:54;11.57;;;6.13;;
76675;SDS011;69204;55.350;36.906;2024-03-23T19:04:55;15.93;;;6.28;;
76675;SDS011;69204;55.350;36.906;2024-03-23T19:10:03;14.87;;;6.20;;
76675;SDS011;69204;55.350;36.906;2024-03-23T19:15:06;15.00;;;6.45;;
76675;SDS011;69204;55.350;36.906;2024-03-23T19:20:08;18.93;;;7.20;;
76675;SDS011;69204;55.350;36.906;2024-03-23T19:25:12;16.98;;;6.13;;
76675;SDS011;69204;55.350;36.906;2024-03-23T19:30:16;17.13;;;7.18;;
76675;SDS011;69204;55.350;36.906;2024-03-23T19:35:17;15.57;;;6.97;;
76675;SDS011;69204;55.350;36.906;2024-03-23T19:40:18;19.20;;;7.03;;
76675;SDS011;69204;55.350;36.906;2024-03-23T19:45:19;17.23;;;6.90;;
76675;SDS011;69204;55.350;36.906;2024-03-23T19:50:21;18.23;;;7.15;;
76675;SDS011;69204;55.350;36.906;2024-03-23T19:55:22;18.52;;;7.50;;
76675;SDS011;69204;55.350;36.906;2024-03-23T20:00:23;27.60;;;7.30;;
76675;SDS011;69204;55.350;36.906;2024-03-23T20:05:23;36.25;;;8.85;;
76675;SDS011;69204;55.350;36.906;2024-03-23T20:10:24;25.87;;;7.03;;
76675;SDS011;69204;55.350;36.906;2024-03-23T20:15:25;18.00;;;6.95;;
76675;SDS011;69204;55.350;36.906;2024-03-23T20:20:27;22.80;;;6.77;;
76675;SDS011;69204;55.350;36.906;2024-03-23T20:25:27;14.52;;;7.20;;
76675;SDS011;69204;55.350;36.906;2024-03-23T20:30:31;14.30;;;6.93;;
76675;SDS011;69204;55.350;36.906;2024-03-23T20:35:32;16.90;;;6.45;;
76675;SDS011;69204;55.350;36.906;2024-03-23T20:40:34;15.20;;;6.63;;
76675;SDS011;69204;55.350;36.906;2024-03-23T20:45:35;15.18;;;6.50;;
76675;SDS011;69204;55.350;36.906;2024-03-23T20:50:36;14.48;;;6.82;;
76675;SDS011;69204;55.350;36.906;2024-03-23T20:55:37;15.07;;;6.63;;
76675;SDS011;69204;55.350;36.906;2024-03-23T21:00:38;13.95;;;6.68;;
76675;SDS011;69204;55.350;36.906;2024-03-23T21:05:41;15.13;;;6.47;;
76675;SDS011;69204;55.350;36.906;2024-03-23T21:10:47;15.82;;;5.55;;
76675;SDS011;69204;55.350;36.906;2024-03-23T21:15:49;16.92;;;7.20;;
76675;SDS011;69204;55.350;36.906;2024-03-23T21:20:54;22.70;;;6.63;;
76675;SDS011;69204;55.350;36.906;2024-03-23T21:25:56;27.00;;;6.43;;
76675;SDS011;69204;55.350;36.906;2024-03-23T21:30:57;20.40;;;7.37;;
76675;SDS011;69204;55.350;36.906;2024-03-23T21:35:58;22.88;;;7.07;;
76675;SDS011;69204;55.350;36.906;2024-03-23T21:41:03;29.45;;;7.13;;
76675;SDS011;69204;55.350;36.906;2024-03-23T21:46:04;21.73;;;6.10;;
76675;SDS011;69204;55.350;36.906;2024-03-23T21:51:05;38.58;;;8.00;;
76675;SDS011;69204;55.350;36.906;2024-03-23T21:56:07;37.23;;;7.77;;
76675;SDS011;69204;55.350;36.906;2024-03-23T22:01:08;34.70;;;6.88;;
76675;SDS011;69204;55.350;36.906;2024-03-23T22:06:09;24.75;;;8.10;;
76675;SDS011;69204;55.350;36.906;2024-03-23T22:11:10;22.15;;;7.18;;
76675;SDS011;69204;55.350;36.906;2024-03-23T22:16:11;27.13;;;7.97;;
76675;SDS011;69204;55.350;36.906;2024-03-23T22:21:12;26.50;;;7.27;;
76675;SDS011;69204;55.350;36.906;2024-03-23T22:26:14;34.22;;;8.23;;
76675;SDS011;69204;55.350;36.906;2024-03-23T22:31:14;37.87;;;8.70;;
76675;SDS011;69204;55.350;36.906;2024-03-23T22:36:16;63.65;;;9.30;;
76675;SDS011;69204;55.350;36.906;2024-03-23T22:41:17;24.57;;;7.20;;
76675;SDS011;69204;55.350;36.906;2024-03-23T22:46:20;22.40;;;7.53;;
76675;SDS011;69204;55.350;36.906;2024-03-23T22:51:21;27.45;;;7.95;;
76675;SDS011;69204;55.350;36.906;2024-03-23T22:56:22;30.75;;;7.78;;
76675;SDS011;69204;55.350;36.906;2024-03-23T23:01:23;39.90;;;9.13;;
76675;SDS011;69204;55.350;36.906;2024-03-23T23:06:24;40.07;;;11.30;;
76675;SDS011;69204;55.350;36.906;2024-03-23T23:11:25;44.70;;;8.20;;
76675;SDS011;69204;55.350;36.906;2024-03-23T23:16:26;171.13;;;13.50;;
76675;SDS011;69204;55.350;36.906;2024-03-23T23:21:27;296.42;;;19.55;;
76675;SDS011;69204;55.350;36.906;2024-03-23T23:26:28;256.43;;;15.83;;
76675;SDS011;69204;55.350;36.906;2024-03-23T23:31:29;45.20;;;9.18;;
76675;SDS011;69204;55.350;36.906;2024-03-23T23:36:30;49.35;;;9.32;;
76675;SDS011;69204;55.350;36.906;2024-03-23T23:41:31;22.20;;;8.60;;
76675;SDS011;69204;55.350;36.906;2024-03-23T23:46:33;28.27;;;7.88;;
76675;SDS011;69204;55.350;36.906;2024-03-23T23:51:34;28.73;;;8.17;;
76675;SDS011;69204;55.350;36.906;2024-03-23T23:56:35;55.60;;;8.55;;
